sensor_id;sensor_type;location;lat;lon;timestamp;pressure;altitude;pressure_sealevel;temperature
81196;BMP280;70671;43.888;-79.394;2023-07-13T00:00:48;98760.16;;;24.96
81196;BMP280;70671;43.888;-79.394;2023-07-13T00:03:14;98770.38;;;24.85
81196;BMP280;70671;43.888;-79.394;2023-07-13T00:05:40;98770.94;;;24.63
81196;BMP280;70671;43.888;-79.394;2023-07-13T00:08:07;98771.81;;;24.46
81196;BMP280;70671;43.888;-79.394;2023-07-13T00:10:34;98784.75;;;24.35
81196;BMP280;70671;43.888;-79.394;2023-07-13T00:13:03;98778.91;;;24.29
81196;BMP280;70671;43.888;-79.394;2023-07-13T00:15:29;98783.63;;;24.18
81196;BMP280;70671;43.888;-79.394;2023-07-13T00:17:57;98779.75;;;24.12
81196;BMP280;70671;43.888;-79.394;2023-07-13T00:20:24;98767.66;;;24.06
81196;BMP280;70671;43.888;-79.394;2023-07-13T00:22:53;98761.81;;;24.04
81196;BMP280;70671;43.888;-79.394;2023-07-13T00:25:22;98759.47;;;23.99
81196;BMP280;70671;43.888;-79.394;2023-07-13T00:27:54;98762.22;;;23.96
81196;BMP280;70671;43.888;-79.394;2023-07-13T00:30:20;98765.75;;;23.93
81196;BMP280;70671;43.888;-79.394;2023-07-13T00:32:46;98773.19;;;23.89
81196;BMP280;70671;43.888;-79.394;2023-07-13T00:35:14;98763.84;;;23.83
81196;BMP280;70671;43.888;-79.394;2023-07-13T00:37:40;98774.78;;;23.76
81196;BMP280;70671;43.888;-79.394;2023-07-13T00:40:07;98772.03;;;23.68
81196;BMP280;70671;43.888;-79.394;2023-07-13T00:42:33;98763.84;;;23.58
81196;BMP280;70671;43.888;-79.394;2023-07-13T00:47:40;98764.66;;;23.44
81196;BMP280;70671;43.888;-79.394;2023-07-13T00:50:09;98777.53;;;23.40
81196;BMP280;70671;43.888;-79.394;2023-07-13T00:52:39;98771.66;;;23.35
81196;BMP280;70671;43.888;-79.394;2023-07-13T00:55:06;98775.97;;;23.29
81196;BMP280;70671;43.888;-79.394;2023-07-13T00:57:35;98777.91;;;23.25
81196;BMP280;70671;43.888;-79.394;2023-07-13T01:00:03;98779.06;;;23.20
81196;BMP280;70671;43.888;-79.394;2023-07-13T01:02:39;98781.41;;;23.15
81196;BMP280;70671;43.888;-79.394;2023-07-13T01:05:16;98799.72;;;23.07
81196;BMP280;70671;43.888;-79.394;2023-07-13T01:07:43;98791.91;;;22.99
81196;BMP280;70671;43.888;-79.394;2023-07-13T01:10:12;98800.88;;;22.92
81196;BMP280;70671;43.888;-79.394;2023-07-13T01:12:38;98795.00;;;22.87
81196;BMP280;70671;43.888;-79.394;2023-07-13T01:15:05;98787.19;;;22.82
81196;BMP280;70671;43.888;-79.394;2023-07-13T01:17:35;98785.25;;;22.79
81196;BMP280;70671;43.888;-79.394;2023-07-13T01:20:01;98789.91;;;22.75
81196;BMP280;70671;43.888;-79.394;2023-07-13T01:22:27;98780.91;;;22.67
81196;BMP280;70671;43.888;-79.394;2023-07-13T01:24:53;98782.47;;;22.58
81196;BMP280;70671;43.888;-79.394;2023-07-13T01:27:25;98778.50;;;22.45
81196;BMP280;70671;43.888;-79.394;2023-07-13T01:29:52;98769.47;;;22.34
81196;BMP280;70671;43.888;-79.394;2023-07-13T01:32:22;98770.63;;;22.22
81196;BMP280;70671;43.888;-79.394;2023-07-13T01:34:53;98753.81;;;22.10
81196;BMP280;70671;43.888;-79.394;2023-07-13T01:37:24;98756.47;;;21.99
81196;BMP280;70671;43.888;-79.394;2023-07-13T01:39:50;98768.88;;;21.90
81196;BMP280;70671;43.888;-79.394;2023-07-13T01:42:17;98762.97;;;21.81
81196;BMP280;70671;43.888;-79.394;2023-07-13T01:44:43;98755.88;;;21.69
81196;BMP280;70671;43.888;-79.394;2023-07-13T01:47:10;98764.06;;;21.66
81196;BMP280;70671;43.888;-79.394;2023-07-13T01:49:36;98761.31;;;21.66
81196;BMP280;70671;43.888;-79.394;2023-07-13T01:52:03;98759.75;;;21.65
81196;BMP280;70671;43.888;-79.394;2023-07-13T01:54:29;98758.19;;;21.64
81196;BMP280;70671;43.888;-79.394;2023-07-13T01:56:55;98774.16;;;21.65
81196;BMP280;70671;43.888;-79.394;2023-07-13T01:59:21;98766.78;;;21.66
81196;BMP280;70671;43.888;-79.394;2023-07-13T02:01:47;98779.59;;;21.69
81196;BMP280;70671;43.888;-79.394;2023-07-13T02:04:13;98765.28;;;21.72
81196;BMP280;70671;43.888;-79.394;2023-07-13T02:06:39;98775.38;;;21.75
81196;BMP280;70671;43.888;-79.394;2023-07-13T02:09:05;98776.19;;;21.79
81196;BMP280;70671;43.888;-79.394;2023-07-13T02:11:33;98776.19;;;21.79
81196;BMP280;70671;43.888;-79.394;2023-07-13T02:14:02;98774.25;;;21.76
81196;BMP280;70671;43.888;-79.394;2023-07-13T02:16:29;98780.81;;;21.71
81196;BMP280;70671;43.888;-79.394;2023-07-13T02:18:55;98765.59;;;21.67
81196;BMP280;70671;43.888;-79.394;2023-07-13T02:21:22;98768.28;;;21.60
81196;BMP280;70671;43.888;-79.394;2023-07-13T02:23:49;98772.47;;;21.50
81196;BMP280;70671;43.888;-79.394;2023-07-13T02:26:15;98773.19;;;21.40
81196;BMP280;70671;43.888;-79.394;2023-07-13T02:28:41;98773.03;;;21.26
81196;BMP280;70671;43.888;-79.394;2023-07-13T02:31:11;98772.13;;;21.12
81196;BMP280;70671;43.888;-79.394;2023-07-13T02:33:37;98780.59;;;21.03
81196;BMP280;70671;43.888;-79.394;2023-07-13T02:36:03;98780.88;;;20.95
81196;BMP280;70671;43.888;-79.394;2023-07-13T02:38:34;98773.44;;;20.88
81196;BMP280;70671;43.888;-79.394;2023-07-13T02:41:05;98769.09;;;20.84
81196;BMP280;70671;43.888;-79.394;2023-07-13T02:43:31;98770.28;;;20.83
81196;BMP280;70671;43.888;-79.394;2023-07-13T02:45:59;98759.75;;;20.81
81196;BMP280;70671;43.888;-79.394;2023-07-13T02:48:30;98757.81;;;20.82
81196;BMP280;70671;43.888;-79.394;2023-07-13T02:50:56;98757.41;;;20.80
81196;BMP280;70671;43.888;-79.394;2023-07-13T02:53:22;98755.06;;;20.78
81196;BMP280;70671;43.888;-79.394;2023-07-13T02:55:48;98744.91;;;20.75
81196;BMP280;70671;43.888;-79.394;2023-07-13T02:58:14;98742.56;;;20.74
81196;BMP280;70671;43.888;-79.394;2023-07-13T03:00:43;98727.41;;;20.73
81196;BMP280;70671;43.888;-79.394;2023-07-13T03:03:12;98716.91;;;20.71
81196;BMP280;70671;43.888;-79.394;2023-07-13T03:05:41;98704.44;;;20.67
81196;BMP280;70671;43.888;-79.394;2023-07-13T03:08:11;98695.84;;;20.65
81196;BMP280;70671;43.888;-79.394;2023-07-13T03:10:38;98703.25;;;20.64
81196;BMP280;70671;43.888;-79.394;2023-07-13T03:13:05;98695.00;;;20.61
81196;BMP280;70671;43.888;-79.394;2023-07-13T03:15:31;98693.47;;;20.56
81196;BMP280;70671;43.888;-79.394;2023-07-13T03:17:57;98700.00;;;20.52
81196;BMP280;70671;43.888;-79.394;2023-07-13T03:20:23;98701.06;;;20.44
81196;BMP280;70671;43.888;-79.394;2023-07-13T03:22:49;98699.78;;;20.34
81196;BMP280;70671;43.888;-79.394;2023-07-13T03:25:15;98711.72;;;20.26
81196;BMP280;70671;43.888;-79.394;2023-07-13T03:27:41;98708.13;;;20.19
81196;BMP280;70671;43.888;-79.394;2023-07-13T03:30:07;98705.31;;;20.12
81196;BMP280;70671;43.888;-79.394;2023-07-13T03:32:33;98709.94;;;20.08
81196;BMP280;70671;43.888;-79.394;2023-07-13T03:34:59;98719.94;;;20.04
81196;BMP280;70671;43.888;-79.394;2023-07-13T03:37:26;98722.25;;;20.02
81196;BMP280;70671;43.888;-79.394;2023-07-13T03:39:53;98723.81;;;20.03
81196;BMP280;70671;43.888;-79.394;2023-07-13T03:42:19;98715.72;;;20.06
81196;BMP280;70671;43.888;-79.394;2023-07-13T03:44:45;98717.28;;;20.07
81196;BMP280;70671;43.888;-79.394;2023-07-13T03:47:16;98711.50;;;20.09
81196;BMP280;70671;43.888;-79.394;2023-07-13T03:49:42;98705.25;;;20.08
81196;BMP280;70671;43.888;-79.394;2023-07-13T03:52:08;98695.97;;;20.09
81196;BMP280;70671;43.888;-79.394;2023-07-13T03:54:34;98695.19;;;20.09
81196;BMP280;70671;43.888;-79.394;2023-07-13T03:56:59;98692.84;;;20.07
81196;BMP280;70671;43.888;-79.394;2023-07-13T03:59:26;98700.59;;;20.05
81196;BMP280;70671;43.888;-79.394;2023-07-13T04:01:51;98710.56;;;19.98
81196;BMP280;70671;43.888;-79.394;2023-07-13T04:04:17;98705.88;;;19.95
81196;BMP280;70671;43.888;-79.394;2023-07-13T04:06:43;98702.78;;;19.96
81196;BMP280;70671;43.888;-79.394;2023-07-13T04:09:09;98690.72;;;19.94
81196;BMP280;70671;43.888;-79.394;2023-07-13T04:11:35;98671.72;;;19.94
81196;BMP280;70671;43.888;-79.394;2023-07-13T04:14:04;98669.75;;;19.94
81196;BMP280;70671;43.888;-79.394;2023-07-13T04:16:30;98662.41;;;19.95
81196;BMP280;70671;43.888;-79.394;2023-07-13T04:18:56;98665.13;;;19.95
81196;BMP280;70671;43.888;-79.394;2023-07-13T04:21:27;98670.97;;;19.97
81196;BMP280;70671;43.888;-79.394;2023-07-13T04:23:53;98660.13;;;19.97
81196;BMP280;70671;43.888;-79.394;2023-07-13T04:26:19;98650.81;;;19.98
81196;BMP280;70671;43.888;-79.394;2023-07-13T04:28:49;98629.81;;;19.95
81196;BMP280;70671;43.888;-79.394;2023-07-13T04:31:15;98633.34;;;19.99
81196;BMP280;70671;43.888;-79.394;2023-07-13T04:33:41;98616.66;;;19.97
81196;BMP280;70671;43.888;-79.394;2023-07-13T04:36:09;98614.34;;;19.99
81196;BMP280;70671;43.888;-79.394;2023-07-13T04:38:35;98612.00;;;19.97
81196;BMP280;70671;43.888;-79.394;2023-07-13T04:41:05;98602.25;;;19.93
81196;BMP280;70671;43.888;-79.394;2023-07-13T04:43:32;98599.88;;;19.91
81196;BMP280;70671;43.888;-79.394;2023-07-13T04:46:06;98594.81;;;19.89
81196;BMP280;70671;43.888;-79.394;2023-07-13T04:48:32;98595.22;;;19.88
81196;BMP280;70671;43.888;-79.394;2023-07-13T04:50:59;98599.84;;;19.88
81196;BMP280;70671;43.888;-79.394;2023-07-13T04:53:26;98595.53;;;19.86
81196;BMP280;70671;43.888;-79.394;2023-07-13T04:55:52;98594.72;;;19.82
81196;BMP280;70671;43.888;-79.394;2023-07-13T04:58:18;98588.47;;;19.78
81196;BMP280;70671;43.888;-79.394;2023-07-13T05:00:44;98591.53;;;19.73
81196;BMP280;70671;43.888;-79.394;2023-07-13T05:03:10;98589.16;;;19.72
81196;BMP280;70671;43.888;-79.394;2023-07-13T05:05:36;98579.09;;;19.72
81196;BMP280;70671;43.888;-79.394;2023-07-13T05:08:02;98583.75;;;19.72
81196;BMP280;70671;43.888;-79.394;2023-07-13T05:10:37;98580.66;;;19.73
81196;BMP280;70671;43.888;-79.394;2023-07-13T05:13:09;98586.47;;;19.72
81196;BMP280;70671;43.888;-79.394;2023-07-13T05:15:35;98570.53;;;19.70
81196;BMP280;70671;43.888;-79.394;2023-07-13T05:18:01;98582.97;;;19.71
81196;BMP280;70671;43.888;-79.394;2023-07-13T05:20:27;98572.88;;;19.72
81196;BMP280;70671;43.888;-79.394;2023-07-13T05:22:53;98557.41;;;19.76
81196;BMP280;70671;43.888;-79.394;2023-07-13T05:25:19;98551.25;;;19.79
81196;BMP280;70671;43.888;-79.394;2023-07-13T05:27:45;98549.34;;;19.83
81196;BMP280;70671;43.888;-79.394;2023-07-13T05:30:13;98555.22;;;19.85
81196;BMP280;70671;43.888;-79.394;2023-07-13T05:32:39;98553.69;;;19.88
81196;BMP280;70671;43.888;-79.394;2023-07-13T05:35:05;98555.25;;;19.89
81196;BMP280;70671;43.888;-79.394;2023-07-13T05:37:31;98550.53;;;19.85
81196;BMP280;70671;43.888;-79.394;2023-07-13T05:39:57;98555.59;;;19.87
81196;BMP280;70671;43.888;-79.394;2023-07-13T05:42:24;98544.75;;;19.87
81196;BMP280;70671;43.888;-79.394;2023-07-13T05:44:50;98543.59;;;19.88
81196;BMP280;70671;43.888;-79.394;2023-07-13T05:47:16;98538.50;;;19.86
81196;BMP280;70671;43.888;-79.394;2023-07-13T05:49:42;98535.47;;;19.88
81196;BMP280;70671;43.888;-79.394;2023-07-13T05:52:08;98527.69;;;19.90
81196;BMP280;70671;43.888;-79.394;2023-07-13T05:54:34;98521.91;;;19.92
81196;BMP280;70671;43.888;-79.394;2023-07-13T05:57:00;98515.72;;;19.95
81196;BMP280;70671;43.888;-79.394;2023-07-13T05:59:26;98495.56;;;19.96
81196;BMP280;70671;43.888;-79.394;2023-07-13T06:01:52;98487.78;;;19.94
81196;BMP280;70671;43.888;-79.394;2023-07-13T06:04:19;98485.06;;;19.94
81196;BMP280;70671;43.888;-79.394;2023-07-13T06:06:45;98496.72;;;19.95
81196;BMP280;70671;43.888;-79.394;2023-07-13T06:09:11;98497.94;;;19.97
81196;BMP280;70671;43.888;-79.394;2023-07-13T06:11:44;98501.00;;;19.96
81196;BMP280;70671;43.888;-79.394;2023-07-13T06:14:10;98493.25;;;19.98
81196;BMP280;70671;43.888;-79.394;2023-07-13T06:16:36;98494.03;;;19.98
81196;BMP280;70671;43.888;-79.394;2023-07-13T06:19:02;98492.09;;;19.99
81196;BMP280;70671;43.888;-79.394;2023-07-13T06:21:28;98489.38;;;19.99
81196;BMP280;70671;43.888;-79.394;2023-07-13T06:23:55;98485.16;;;20.01
81196;BMP280;70671;43.888;-79.394;2023-07-13T06:26:21;98479.34;;;20.03
81196;BMP280;70671;43.888;-79.394;2023-07-13T06:28:47;98480.88;;;20.04
81196;BMP280;70671;43.888;-79.394;2023-07-13T06:31:14;98497.59;;;20.06
81196;BMP280;70671;43.888;-79.394;2023-07-13T06:33:41;98499.13;;;20.03
81196;BMP280;70671;43.888;-79.394;2023-07-13T06:36:07;98513.00;;;19.95
81196;BMP280;70671;43.888;-79.394;2023-07-13T06:38:34;98521.75;;;19.77
81196;BMP280;70671;43.888;-79.394;2023-07-13T06:41:05;98509.03;;;19.55
81196;BMP280;70671;43.888;-79.394;2023-07-13T06:43:31;98511.09;;;19.32
81196;BMP280;70671;43.888;-79.394;2023-07-13T06:45:57;98496.91;;;19.16
81196;BMP280;70671;43.888;-79.394;2023-07-13T06:48:23;98483.97;;;19.06
81196;BMP280;70671;43.888;-79.394;2023-07-13T06:50:50;98481.19;;;18.99
81196;BMP280;70671;43.888;-79.394;2023-07-13T06:53:18;98476.06;;;18.94
81196;BMP280;70671;43.888;-79.394;2023-07-13T06:55:45;98460.13;;;18.89
81196;BMP280;70671;43.888;-79.394;2023-07-13T06:58:11;98445.25;;;18.80
81196;BMP280;70671;43.888;-79.394;2023-07-13T07:00:37;98450.50;;;18.69
81196;BMP280;70671;43.888;-79.394;2023-07-13T07:03:05;98453.06;;;18.59
81196;BMP280;70671;43.888;-79.394;2023-07-13T07:05:31;98443.28;;;18.54
81196;BMP280;70671;43.888;-79.394;2023-07-13T07:07:58;98437.03;;;18.50
81196;BMP280;70671;43.888;-79.394;2023-07-13T07:10:25;98439.34;;;18.48
81196;BMP280;70671;43.888;-79.394;2023-07-13T07:12:51;98433.88;;;18.45
81196;BMP280;70671;43.888;-79.394;2023-07-13T07:15:18;98419.84;;;18.39
81196;BMP280;70671;43.888;-79.394;2023-07-13T07:17:44;98407.78;;;18.37
81196;BMP280;70671;43.888;-79.394;2023-07-13T07:20:10;98401.91;;;18.31
81196;BMP280;70671;43.888;-79.394;2023-07-13T07:22:36;98403.78;;;18.27
81196;BMP280;70671;43.888;-79.394;2023-07-13T07:25:02;98384.34;;;18.22
81196;BMP280;70671;43.888;-79.394;2023-07-13T07:27:29;98379.28;;;18.20
81196;BMP280;70671;43.888;-79.394;2023-07-13T07:29:55;98359.50;;;18.16
81196;BMP280;70671;43.888;-79.394;2023-07-13T07:32:23;98376.09;;;18.15
81196;BMP280;70671;43.888;-79.394;2023-07-13T07:34:49;98341.97;;;18.10
81196;BMP280;70671;43.888;-79.394;2023-07-13T07:37:15;98357.41;;;18.06
81196;BMP280;70671;43.888;-79.394;2023-07-13T07:39:43;98293.06;;;18.00
81196;BMP280;70671;43.888;-79.394;2023-07-13T07:42:09;98261.31;;;17.97
81196;BMP280;70671;43.888;-79.394;2023-07-13T07:44:35;98293.78;;;17.97
81196;BMP280;70671;43.888;-79.394;2023-07-13T07:47:01;98270.53;;;17.92
81196;BMP280;70671;43.888;-79.394;2023-07-13T07:49:27;98241.47;;;17.89
81196;BMP280;70671;43.888;-79.394;2023-07-13T07:51:53;98230.63;;;17.89
81196;BMP280;70671;43.888;-79.394;2023-07-13T07:54:26;98232.94;;;17.87
81196;BMP280;70671;43.888;-79.394;2023-07-13T07:56:52;98244.56;;;17.88
81196;BMP280;70671;43.888;-79.394;2023-07-13T07:59:19;98265.03;;;17.89
81196;BMP280;70671;43.888;-79.394;2023-07-13T08:01:44;98269.69;;;17.88
81196;BMP280;70671;43.888;-79.394;2023-07-13T08:04:13;98305.22;;;17.87
81196;BMP280;70671;43.888;-79.394;2023-07-13T08:06:39;98328.34;;;17.81
81196;BMP280;70671;43.888;-79.394;2023-07-13T08:09:05;98335.97;;;17.75
81196;BMP280;70671;43.888;-79.394;2023-07-13T08:11:31;98349.88;;;17.74
81196;BMP280;70671;43.888;-79.394;2023-07-13T08:13:57;98276.03;;;17.73
81196;BMP280;70671;43.888;-79.394;2023-07-13T08:16:23;98202.97;;;17.73
81196;BMP280;70671;43.888;-79.394;2023-07-13T08:18:49;98203.38;;;17.75
81196;BMP280;70671;43.888;-79.394;2023-07-13T08:21:15;98209.94;;;17.74
81196;BMP280;70671;43.888;-79.394;2023-07-13T08:23:41;98211.13;;;17.77
81196;BMP280;70671;43.888;-79.394;2023-07-13T08:26:08;98216.91;;;17.75
81196;BMP280;70671;43.888;-79.394;2023-07-13T08:28:34;98197.59;;;17.77
81196;BMP280;70671;43.888;-79.394;2023-07-13T08:31:05;98201.09;;;17.77
81196;BMP280;70671;43.888;-79.394;2023-07-13T08:33:34;98201.47;;;17.79
81196;BMP280;70671;43.888;-79.394;2023-07-13T08:36:00;98183.69;;;17.78
81196;BMP280;70671;43.888;-79.394;2023-07-13T08:38:26;98180.56;;;17.76
81196;BMP280;70671;43.888;-79.394;2023-07-13T08:40:55;98180.91;;;17.75
81196;BMP280;70671;43.888;-79.394;2023-07-13T08:43:41;98173.97;;;17.74
81196;BMP280;70671;43.888;-79.394;2023-07-13T08:48:44;98161.09;;;17.67
81196;BMP280;70671;43.888;-79.394;2023-07-13T08:51:24;98151.72;;;17.61
81196;BMP280;70671;43.888;-79.394;2023-07-13T08:53:57;98141.22;;;17.56
81196;BMP280;70671;43.888;-79.394;2023-07-13T08:56:26;98140.44;;;17.56
81196;BMP280;70671;43.888;-79.394;2023-07-13T08:59:05;98135.41;;;17.54
81196;BMP280;70671;43.888;-79.394;2023-07-13T09:04:46;98109.84;;;17.52
81196;BMP280;70671;43.888;-79.394;2023-07-13T09:07:24;98131.09;;;17.50
81196;BMP280;70671;43.888;-79.394;2023-07-13T09:10:15;98127.59;;;17.49
81196;BMP280;70671;43.888;-79.394;2023-07-13T09:18:09;98122.88;;;17.46
81196;BMP280;70671;43.888;-79.394;2023-07-13T09:20:47;98134.44;;;17.43
81196;BMP280;70671;43.888;-79.394;2023-07-13T09:23:18;98125.91;;;17.41
81196;BMP280;70671;43.888;-79.394;2023-07-13T09:25:51;98129.66;;;17.33
81196;BMP280;70671;43.888;-79.394;2023-07-13T09:28:26;98112.34;;;17.15
81196;BMP280;70671;43.888;-79.394;2023-07-13T09:31:36;98113.19;;;17.19
81196;BMP280;70671;43.888;-79.394;2023-07-13T09:34:08;98082.38;;;17.23
81196;BMP280;70671;43.888;-79.394;2023-07-13T09:36:35;98044.16;;;17.25
81196;BMP280;70671;43.888;-79.394;2023-07-13T09:39:13;98009.81;;;17.29
81196;BMP280;70671;43.888;-79.394;2023-07-13T09:44:33;98025.38;;;17.35
81196;BMP280;70671;43.888;-79.394;2023-07-13T09:47:01;98027.72;;;17.37
81196;BMP280;70671;43.888;-79.394;2023-07-13T09:49:34;98037.81;;;17.40
81196;BMP280;70671;43.888;-79.394;2023-07-13T09:52:06;98034.69;;;17.38
81196;BMP280;70671;43.888;-79.394;2023-07-13T09:54:36;98021.59;;;17.40
81196;BMP280;70671;43.888;-79.394;2023-07-13T09:57:14;98006.53;;;17.42
81196;BMP280;70671;43.888;-79.394;2023-07-13T09:59:44;98005.00;;;17.42
81196;BMP280;70671;43.888;-79.394;2023-07-13T10:02:31;97961.78;;;17.45
81196;BMP280;70671;43.888;-79.394;2023-07-13T10:05:07;73135.31;;;-143.40
81196;BMP280;70671;43.888;-79.394;2023-07-13T10:07:42;73135.31;;;-143.40
81196;BMP280;70671;43.888;-79.394;2023-07-13T10:10:21;73135.31;;;-143.40
81196;BMP280;70671;43.888;-79.394;2023-07-13T10:12:49;73135.31;;;-143.40
81196;BMP280;70671;43.888;-79.394;2023-07-13T10:15:22;73135.31;;;-143.40
81196;BMP280;70671;43.888;-79.394;2023-07-13T10:17:49;73135.31;;;-143.40
81196;BMP280;70671;43.888;-79.394;2023-07-13T10:20:16;73135.31;;;-143.40
81196;BMP280;70671;43.888;-79.394;2023-07-13T10:23:02;73135.31;;;-143.40
81196;BMP280;70671;43.888;-79.394;2023-07-13T10:25:33;73135.31;;;-143.40
81196;BMP280;70671;43.888;-79.394;2023-07-13T10:28:29;73135.31;;;-143.40
81196;BMP280;70671;43.888;-79.394;2023-07-13T10:30:53;73135.31;;;-143.40
81196;BMP280;70671;43.888;-79.394;2023-07-13T10:33:20;73135.31;;;-143.40
81196;BMP280;70671;43.888;-79.394;2023-07-13T10:35:49;73135.31;;;-143.40
81196;BMP280;70671;43.888;-79.394;2023-07-13T10:38:23;73135.31;;;-143.40
81196;BMP280;70671;43.888;-79.394;2023-07-13T10:41:06;73135.31;;;-143.40
81196;BMP280;70671;43.888;-79.394;2023-07-13T10:43:41;73135.31;;;-143.40
81196;BMP280;70671;43.888;-79.394;2023-07-13T10:46:10;73135.31;;;-143.40
81196;BMP280;70671;43.888;-79.394;2023-07-13T10:48:37;73135.31;;;-143.40
81196;BMP280;70671;43.888;-79.394;2023-07-13T10:51:06;73135.31;;;-143.40
81196;BMP280;70671;43.888;-79.394;2023-07-13T10:53:34;73135.31;;;-143.40
81196;BMP280;70671;43.888;-79.394;2023-07-13T10:56:10;73135.31;;;-143.40
81196;BMP280;70671;43.888;-79.394;2023-07-13T10:58:45;73135.31;;;-143.40
81196;BMP280;70671;43.888;-79.394;2023-07-13T11:01:16;73135.31;;;-143.40
81196;BMP280;70671;43.888;-79.394;2023-07-13T11:03:54;73135.31;;;-143.40
81196;BMP280;70671;43.888;-79.394;2023-07-13T11:06:34;73135.31;;;-143.40
81196;BMP280;70671;43.888;-79.394;2023-07-13T11:09:19;73135.31;;;-143.40
81196;BMP280;70671;43.888;-79.394;2023-07-13T11:12:06;73135.31;;;-143.40
81196;BMP280;70671;43.888;-79.394;2023-07-13T11:18:01;73135.31;;;-143.40
81196;BMP280;70671;43.888;-79.394;2023-07-13T11:20:39;73135.31;;;-143.40
81196;BMP280;70671;43.888;-79.394;2023-07-13T11:25:38;73135.31;;;-143.40
81196;BMP280;70671;43.888;-79.394;2023-07-13T11:38:47;73135.31;;;-143.40
81196;BMP280;70671;43.888;-79.394;2023-07-13T11:41:31;73135.31;;;-143.40
81196;BMP280;70671;43.888;-79.394;2023-07-13T11:44:28;73135.31;;;-143.40
81196;BMP280;70671;43.888;-79.394;2023-07-13T11:46:59;73135.31;;;-143.40
81196;BMP280;70671;43.888;-79.394;2023-07-13T11:49:30;73135.31;;;-143.40
81196;BMP280;70671;43.888;-79.394;2023-07-13T11:51:57;73135.31;;;-143.40
81196;BMP280;70671;43.888;-79.394;2023-07-13T11:54:29;73135.31;;;-143.40
81196;BMP280;70671;43.888;-79.394;2023-07-13T11:57:45;73135.31;;;-143.40
81196;BMP280;70671;43.888;-79.394;2023-07-13T11:59:43;73135.31;;;-143.40
81196;BMP280;70671;43.888;-79.394;2023-07-13T12:02:17;73135.31;;;-143.40
81196;BMP280;70671;43.888;-79.394;2023-07-13T12:04:49;73135.31;;;-143.40
81196;BMP280;70671;43.888;-79.394;2023-07-13T12:07:18;73135.31;;;-143.40
81196;BMP280;70671;43.888;-79.394;2023-07-13T12:09:45;73135.31;;;-143.40
81196;BMP280;70671;43.888;-79.394;2023-07-13T12:12:13;73135.31;;;-143.40
81196;BMP280;70671;43.888;-79.394;2023-07-13T12:14:39;73135.31;;;-143.40
81196;BMP280;70671;43.888;-79.394;2023-07-13T12:17:16;73135.31;;;-143.40
81196;BMP280;70671;43.888;-79.394;2023-07-13T12:19:44;73135.31;;;-143.40
81196;BMP280;70671;43.888;-79.394;2023-07-13T12:22:13;73135.31;;;-143.40
81196;BMP280;70671;43.888;-79.394;2023-07-13T12:24:43;73135.31;;;-143.40
81196;BMP280;70671;43.888;-79.394;2023-07-13T12:27:24;73135.31;;;-143.40
81196;BMP280;70671;43.888;-79.394;2023-07-13T12:30:01;73135.31;;;-143.40
81196;BMP280;70671;43.888;-79.394;2023-07-13T12:32:27;73135.31;;;-143.40
81196;BMP280;70671;43.888;-79.394;2023-07-13T12:34:57;73135.31;;;-143.40
81196;BMP280;70671;43.888;-79.394;2023-07-13T12:37:28;73135.31;;;-143.40
81196;BMP280;70671;43.888;-79.394;2023-07-13T12:39:56;73135.31;;;-143.40
81196;BMP280;70671;43.888;-79.394;2023-07-13T12:45:05;73135.31;;;-143.40
81196;BMP280;70671;43.888;-79.394;2023-07-13T12:47:42;73135.31;;;-143.40
81196;BMP280;70671;43.888;-79.394;2023-07-13T12:50:20;73135.31;;;-143.40
81196;BMP280;70671;43.888;-79.394;2023-07-13T12:52:56;73135.31;;;-143.40
81196;BMP280;70671;43.888;-79.394;2023-07-13T12:55:23;73135.31;;;-143.40
81196;BMP280;70671;43.888;-79.394;2023-07-13T12:57:56;73135.31;;;-143.40
81196;BMP280;70671;43.888;-79.394;2023-07-13T13:00:33;73135.31;;;-143.40
81196;BMP280;70671;43.888;-79.394;2023-07-13T13:03:21;73135.31;;;-143.40
81196;BMP280;70671;43.888;-79.394;2023-07-13T13:05:48;73135.31;;;-143.40
81196;BMP280;70671;43.888;-79.394;2023-07-13T13:08:14;73135.31;;;-143.40
81196;BMP280;70671;43.888;-79.394;2023-07-13T13:10:40;73135.31;;;-143.40
81196;BMP280;70671;43.888;-79.394;2023-07-13T13:13:06;73135.31;;;-143.40
81196;BMP280;70671;43.888;-79.394;2023-07-13T13:15:34;73135.31;;;-143.40
81196;BMP280;70671;43.888;-79.394;2023-07-13T13:18:02;73135.31;;;-143.40
81196;BMP280;70671;43.888;-79.394;2023-07-13T13:20:28;73135.31;;;-143.40
81196;BMP280;70671;43.888;-79.394;2023-07-13T13:22:54;73135.31;;;-143.40
81196;BMP280;70671;43.888;-79.394;2023-07-13T13:25:20;73135.31;;;-143.40
81196;BMP280;70671;43.888;-79.394;2023-07-13T13:27:48;73135.31;;;-143.40
81196;BMP280;70671;43.888;-79.394;2023-07-13T13:30:16;73135.31;;;-143.40
81196;BMP280;70671;43.888;-79.394;2023-07-13T13:32:46;73135.31;;;-143.40
81196;BMP280;70671;43.888;-79.394;2023-07-13T13:35:14;73135.31;;;-143.40
81196;BMP280;70671;43.888;-79.394;2023-07-13T13:37:40;73135.31;;;-143.40
81196;BMP280;70671;43.888;-79.394;2023-07-13T13:40:27;73135.31;;;-143.40
81196;BMP280;70671;43.888;-79.394;2023-07-13T13:42:53;73135.31;;;-143.40
81196;BMP280;70671;43.888;-79.394;2023-07-13T13:45:20;73135.31;;;-143.40
81196;BMP280;70671;43.888;-79.394;2023-07-13T13:47:47;73135.31;;;-143.40
81196;BMP280;70671;43.888;-79.394;2023-07-13T13:50:16;73135.31;;;-143.40
81196;BMP280;70671;43.888;-79.394;2023-07-13T13:52:43;73135.31;;;-143.40
81196;BMP280;70671;43.888;-79.394;2023-07-13T13:55:20;73135.31;;;-143.40
81196;BMP280;70671;43.888;-79.394;2023-07-13T13:57:47;73135.31;;;-143.40
81196;BMP280;70671;43.888;-79.394;2023-07-13T14:00:14;73135.31;;;-143.40
81196;BMP280;70671;43.888;-79.394;2023-07-13T14:02:46;73135.31;;;-143.40
81196;BMP280;70671;43.888;-79.394;2023-07-13T14:05:25;73135.31;;;-143.40
81196;BMP280;70671;43.888;-79.394;2023-07-13T14:07:52;73135.31;;;-143.40
81196;BMP280;70671;43.888;-79.394;2023-07-13T14:10:19;73135.31;;;-143.40
81196;BMP280;70671;43.888;-79.394;2023-07-13T14:12:48;73135.31;;;-143.40
81196;BMP280;70671;43.888;-79.394;2023-07-13T14:15:21;73135.31;;;-143.40
81196;BMP280;70671;43.888;-79.394;2023-07-13T14:17:47;73135.31;;;-143.40
81196;BMP280;70671;43.888;-79.394;2023-07-13T14:20:17;73135.31;;;-143.40
81196;BMP280;70671;43.888;-79.394;2023-07-13T14:22:44;73135.31;;;-143.40